Costa Fascinosa — ICPO — position and weather

sailwx.info

Track history (hours):
 
Tides and Currents Weather Stations Pressure Air Temp Water Temp Dewpoint Dewpoint Depression Visibility Wind Speed Wind Dir Waves Ship Positions

Costa Fascinosa

Last reported at 2018-Apr-25 02:30 UTC. Time now 2018-Apr-25 02:38 UTC.
Position N 36°13' E 015°01'.

Length 291 m; draft 8.3 m.

Type: Passenger vessel. MMSI: 247313500.

Date/timePositionNaut miles runAvg speedWind from/ knotsBaromVisibWave heightAir tempDewpointWater temp
2018-Apr-25 02:30N 36°13' E 015°01'612.4
2018-Apr-25 02:00N 36°17' E 015°07'612.1
2018-Apr-25 01:30N 36°20' E 015°13'612.1
2018-Apr-25 01:00N 36°24' E 015°19'611.8
2018-Apr-25 00:29N 36°28' E 015°25'1512.4
2018-Apr-24 23:18N 36°42' E 015°32'413.1
2018-Apr-24 23:00N 36°45' E 015°34'1013.3
2018-Apr-24 22:14N 36°55' E 015°40'312.9
2018-Apr-24 21:59N 36°58' E 015°41'1812.3
2018-Apr-24 20:31N 37°15' E 015°36'012.7
2018-Apr-24 20:30N 37°15' E 015°35'712.6
2018-Apr-24 19:54N 37°19' E 015°27'26 2.2
2018-Apr-24 08:00N 37°44' E 015°21'2217.8
2018-Apr-24 06:46N 38°04' E 015°32'618.6
2018-Apr-24 06:28N 38°09' E 015°35'916.7
2018-Apr-24 05:54N 38°17' E 015°41'611.8
2018-Apr-24 05:24N 38°23' E 015°39'715.8
2018-Apr-24 04:58N 38°29' E 015°35'917.4
2018-Apr-24 04:29N 38°36' E 015°30'917.5
2018-Apr-24 04:00N 38°44' E 015°25'1317.6
2018-Apr-24 03:15N 38°56' E 015°17'7016.3
2018-Apr-23 22:56N 39°57' E 014°33'613.4
2018-Apr-23 22:30N 40°02' E 014°29'813.6
2018-Apr-23 21:57N 40°09' E 014°25'613.7
2018-Apr-23 21:30N 40°14' E 014°21'713.5
2018-Apr-23 21:00N 40°20' E 014°17'713.3
2018-Apr-23 20:30N 40°26' E 014°12'612.9
2018-Apr-23 20:00N 40°32' E 014°09'612.8
2018-Apr-23 19:30N 40°38' E 014°11'612.9
2018-Apr-23 19:00N 40°44' E 014°15'612.1
2018-Apr-23 18:30N 40°50' E 014°17'1 2.2
2018-Apr-23 17:59N 40°50' E 014°16'0 0.0
2018-Apr-23 17:29N 40°50' E 014°16'0 0.0
2018-Apr-23 16:59N 40°50' E 014°16'0 0.0
2018-Apr-23 16:29N 40°50' E 014°16'0 0.0
2018-Apr-23 15:59N 40°50' E 014°16'0 0.0
2018-Apr-23 15:26N 40°50' E 014°16'0 0.0
2018-Apr-23 14:59N 40°50' E 014°16'0 0.0
2018-Apr-23 14:29N 40°50' E 014°16'0 0.0
2018-Apr-23 13:59N 40°50' E 014°16'0 0.0
2018-Apr-23 13:29N 40°50' E 014°16'0 0.0
2018-Apr-23 12:59N 40°50' E 014°16'0 0.0
2018-Apr-23 12:20N 40°50' E 014°16'0 0.0
2018-Apr-23 11:50N 40°50' E 014°16'0 0.0
2018-Apr-23 11:20N 40°50' E 014°16'0 0.7
2018-Apr-23 10:53N 40°50' E 014°16'2 4.6
2018-Apr-23 10:30N 40°49' E 014°17'510.8
2018-Apr-23 10:00N 40°43' E 014°17'1019.4
2018-Apr-23 09:30N 40°39' E 014°05'1020.1
2018-Apr-23 09:00N 40°37' E 013°52'1019.6
2018-Apr-23 08:30N 40°40' E 013°40'1620.1
2018-Apr-23 07:43N 40°44' E 013°19'3619.7
2018-Apr-23 05:54N 40°58' E 012°36'1520.1
2018-Apr-23 05:08N 41°06' E 012°19'320.0
2018-Apr-23 04:59N 41°08' E 012°15'2120.1
2018-Apr-23 03:55N 41°20' E 011°51'820.4
2018-Apr-23 03:30N 41°24' E 011°42'1020.1
2018-Apr-23 03:00N 41°30' E 011°31'1019.0
2018-Apr-23 02:30N 41°35' E 011°20'919.2
2018-Apr-23 02:00N 41°39' E 011°08'918.8
2018-Apr-23 01:30N 41°44' E 010°58'1319.1
2018-Apr-23 00:48N 41°53' E 010°44'619.0
2018-Apr-23 00:30N 41°56' E 010°38'918.7
2018-Apr-23 00:00N 42°01' E 010°28'1118.8
2018-Apr-22 23:25N 42°07' E 010°15'819.2
2018-Apr-22 23:00N 42°12' E 010°06'1019.1
2018-Apr-22 22:30N 42°17' E 009°56'1119.1
2018-Apr-22 21:56N 42°27' E 009°50'818.9
2018-Apr-22 21:30N 42°35' E 009°46'918.8
2018-Apr-22 21:00N 42°43' E 009°42'919.0
2018-Apr-22 20:30N 42°52' E 009°38'1019.0
2018-Apr-22 20:00N 43°02' E 009°35'1019.3
2018-Apr-22 19:30N 43°10' E 009°29'1019.2
2018-Apr-22 19:00N 43°18' E 009°22'918.8
2018-Apr-22 18:30N 43°26' E 009°15'918.8
2018-Apr-22 18:00N 43°34' E 009°09'1019.2
2018-Apr-22 17:30N 43°43' E 009°02'1019.5
2018-Apr-22 17:00N 43°51' E 008°55'1019.1
2018-Apr-22 16:30N 43°59' E 008°48'1019.0
2018-Apr-22 16:00N 44°07' E 008°41'918.7
2018-Apr-22 15:30N 44°15' E 008°34'5 9.1
2018-Apr-22 15:00N 44°19' E 008°30'1 1.3
2018-Apr-22 14:28N 44°19' E 008°30'0 0.0
2018-Apr-22 13:58N 44°19' E 008°30'0 0.0
2018-Apr-22 13:28N 44°19' E 008°30'0 0.0
2018-Apr-22 13:00N 44°19' E 008°30'0 0.0
2018-Apr-22 12:30N 44°19' E 008°30'0 0.0
2018-Apr-22 12:00N 44°19' E 008°30'0 0.0
2018-Apr-22 11:30N 44°19' E 008°30'0 0.0
2018-Apr-22 10:59N 44°19' E 008°30'0 0.0
2018-Apr-22 10:29N 44°19' E 008°30'0 0.0
2018-Apr-22 09:59N 44°19' E 008°30'0 0.0
2018-Apr-22 09:29N 44°19' E 008°30'0 0.0
2018-Apr-22 08:59N 44°19' E 008°30'0 0.0
2018-Apr-22 08:28N 44°19' E 008°30'0 0.0
2018-Apr-22 07:58N 44°19' E 008°30'0 0.0
2018-Apr-22 07:28N 44°19' E 008°30'0 0.0
2018-Apr-22 07:00N 44°19' E 008°30'0 0.0
2018-Apr-22 06:30N 44°19' E 008°30'1 1.4
2018-Apr-22 06:00N 44°19' E 008°30'4 9.0
2018-Apr-22 05:31N 44°15' E 008°31'917.0
2018-Apr-22 05:01N 44°07' E 008°26'917.3
2018-Apr-22 04:31N 43°60' E 008°20'917.5
2018-Apr-22 04:01N 43°52' E 008°13'917.3
2018-Apr-22 03:31N 43°46' E 008°04'917.2
2018-Apr-22 03:00N 43°41' E 007°55'817.0
2018-Apr-22 02:30N 43°35' E 007°46'816.9
2018-Apr-22 02:01N 43°31' E 007°37'816.8
2018-Apr-22 01:31N 43°26' E 007°27'917.2
2018-Apr-22 01:01N 43°21' E 007°18'917.7
2018-Apr-22 00:30N 43°16' E 007°08'4312.8
2018-Apr-21 21:07N 42°54' E 006°16'313.1
2018-Apr-21 20:54N 42°54' E 006°13'2812.7
2018-Apr-21 18:41N 42°60' E 005°35'212.8
2018-Apr-21 18:30N 43°01' E 005°32'612.9
2018-Apr-21 18:00N 43°03' E 005°24'613.0
2018-Apr-21 17:30N 43°04' E 005°15'612.7
2018-Apr-21 17:00N 43°07' E 005°07'612.7
2018-Apr-21 16:30N 43°13' E 005°09'612.8
2018-Apr-21 16:00N 43°18' E 005°14'5 9.7
2018-Apr-21 15:30N 43°21' E 005°19'0 0.1
2018-Apr-21 06:50N 43°21' E 005°20'1 2.2
2018-Apr-21 06:30N 43°21' E 005°19'4 7.5
2018-Apr-21 05:59N 43°19' E 005°14'816.9
2018-Apr-21 05:31N 43°12' E 005°09'816.7
2018-Apr-21 05:00N 43°05' E 005°02'713.5
2018-Apr-21 04:30N 43°00' E 004°55'713.2
2018-Apr-21 04:00N 42°56' E 004°49'713.5
2018-Apr-21 03:30N 42°51' E 004°43'11812.9
2018-Apr-20 18:22N 41°30' E 002°46'513.2
2018-Apr-20 18:00N 41°28' E 002°41'612.9
2018-Apr-20 17:30N 41°24' E 002°34'612.8
2018-Apr-20 17:00N 41°20' E 002°27'612.8
2018-Apr-20 16:30N 41°17' E 002°19'611.8
2018-Apr-20 16:00N 41°15' E 002°12'5 9.9
2018-Apr-20 15:30N 41°20' E 002°10'1 1.8
2018-Apr-20 14:58N 41°21' E 002°10'0 0.0
2018-Apr-20 14:28N 41°21' E 002°10'0 0.0
2018-Apr-20 13:58N 41°21' E 002°10'0 0.0
2018-Apr-20 13:28N 41°21' E 002°10'0 0.0
2018-Apr-20 12:58N 41°21' E 002°10'0 0.0
2018-Apr-20 12:29N 41°21' E 002°10'0 0.0
2018-Apr-20 12:00N 41°21' E 002°10'0 0.0
2018-Apr-20 11:29N 41°21' E 002°10'0 0.0
2018-Apr-20 10:58N 41°21' E 002°10'0 0.0
2018-Apr-20 10:25N 41°21' E 002°10'0 0.0
2018-Apr-20 09:58N 41°21' E 002°10'0 0.0
2018-Apr-20 09:28N 41°21' E 002°10'0 0.0
2018-Apr-20 08:58N 41°21' E 002°10'0 0.0
2018-Apr-20 08:25N 41°21' E 002°10'0 0.0
2018-Apr-20 07:58N 41°21' E 002°10'0 0.0
2018-Apr-20 07:28N 41°21' E 002°10'0 0.8
2018-Apr-20 07:00N 41°21' E 002°10'2 3.6
2018-Apr-20 06:30N 41°19' E 002°10'5 9.5
2018-Apr-20 06:00N 41°15' E 002°14'816.5
2018-Apr-20 05:30N 41°11' E 002°24'917.3
2018-Apr-20 05:00N 41°07' E 002°34'816.8
2018-Apr-20 04:30N 41°03' E 002°43'2616.7
2018-Apr-20 02:58N 40°49' E 003°12'28217.5
2018-Apr-19 10:50N 38°24' E 008°27'26616.4
2018-Apr-18 18:35N 36°31' E 013°30'1 9.4
2018-Apr-18 18:30N 36°30' E 013°31'612.7
2018-Apr-18 18:00N 36°28' E 013°38'713.3
2018-Apr-18 17:30N 36°25' E 013°46'714.7
2018-Apr-18 17:00N 36°21' E 013°54'612.5
2018-Apr-18 16:30N 36°18' E 014°01'713.8
2018-Apr-18 16:00N 36°15' E 014°08'814.3
2018-Apr-18 15:28N 36°12' E 014°17'613.3
2018-Apr-18 15:00N 36°09' E 014°24'713.5
2018-Apr-18 14:30N 36°07' E 014°31'815.7
2018-Apr-18 14:00N 36°02' E 014°39'611.4
2018-Apr-18 13:30N 35°57' E 014°34'4 0.5
2018-Apr-18 05:23N 35°54' E 014°32'2 4.4
2018-Apr-18 04:59N 35°55' E 014°34'815.4
2018-Apr-18 04:28N 35°60' E 014°41'8711.9
2018-Apr-17 21:08N 37°15' E 015°36'413.0
2018-Apr-17 20:49N 37°17' E 015°32'413.1
2018-Apr-17 20:29N 37°19' E 015°27'43 3.2
2018-Apr-17 07:07N 38°02' E 015°31'217.8
2018-Apr-17 06:59N 38°04' E 015°32'917.2
2018-Apr-17 06:29N 38°12' E 015°36'813.4
2018-Apr-17 05:54N 38°18' E 015°41'817.7
2018-Apr-17 05:29N 38°25' E 015°37'917.5
2018-Apr-17 04:59N 38°33' E 015°32'916.9
2018-Apr-17 04:29N 38°41' E 015°27'8916.0
2018-Apr-16 22:54N 39°59' E 014°32'512.8
2018-Apr-16 22:30N 40°03' E 014°29'612.7
2018-Apr-16 22:00N 40°09' E 014°25'712.8
2018-Apr-16 21:29N 40°15' E 014°21'612.7
2018-Apr-16 21:00N 40°20' E 014°17'1412.6
2018-Apr-16 19:55N 40°32' E 014°08'512.3
2018-Apr-16 19:30N 40°37' E 014°10'612.6
2018-Apr-16 19:00N 40°43' E 014°14'612.2
2018-Apr-16 18:30N 40°48' E 014°17'2 2.9
2018-Apr-16 17:50N 40°50' E 014°16'0 0.0
2018-Apr-16 17:02N 40°50' E 014°16'0 0.0
2018-Apr-16 16:50N 40°50' E 014°16'0 0.0
2018-Apr-16 16:08N 40°50' E 014°16'0 0.0
2018-Apr-16 15:50N 40°50' E 014°16'0 0.0
2018-Apr-16 15:16N 40°50' E 014°16'0 0.0
2018-Apr-16 14:58N 40°50' E 014°16'0 0.0
2018-Apr-16 14:28N 40°50' E 014°16'0 0.0
2018-Apr-16 13:57N 40°50' E 014°16'0 0.0
2018-Apr-16 12:57N 40°50' E 014°16'0 0.0
2018-Apr-16 12:27N 40°50' E 014°16'0 0.0
2018-Apr-16 12:00N 40°50' E 014°16'0 0.0
2018-Apr-16 11:27N 40°50' E 014°16'0 0.1
2018-Apr-16 11:00N 40°50' E 014°16'2 3.7
2018-Apr-16 10:31N 40°49' E 014°17'5 9.9
2018-Apr-16 10:00N 40°44' E 014°17'917.5
2018-Apr-16 09:30N 40°40' E 014°07'917.9
2018-Apr-16 09:00N 40°38' E 013°55'1019.1
2018-Apr-16 08:30N 40°40' E 013°43'1019.3
2018-Apr-16 07:59N 40°42' E 013°30'16319.9
2018-Apr-15 23:45N 42°04' E 010°22'3119.6
2018-Apr-15 22:11N 42°25' E 009°51'420.3
2018-Apr-15 21:59N 42°29' E 009°49'1720.4
2018-Apr-15 21:10N 42°44' E 009°41'420.2
2018-Apr-15 20:58N 42°48' E 009°39'920.2
2018-Apr-15 20:30N 42°57' E 009°37'1019.7
2018-Apr-15 20:00N 43°06' E 009°32'1020.0
2018-Apr-15 19:30N 43°15' E 009°25'1020.0
2018-Apr-15 19:00N 43°23' E 009°18'1020.0
2018-Apr-15 18:30N 43°32' E 009°10'1019.9
2018-Apr-15 18:00N 43°40' E 009°03'1019.9
2018-Apr-15 17:30N 43°48' E 008°55'1020.3
2018-Apr-15 17:00N 43°57' E 008°49'1020.8
2018-Apr-15 16:30N 44°07' E 008°42'1020.2
2018-Apr-15 16:00N 44°15' E 008°34'5 9.9
2018-Apr-15 15:30N 44°19' E 008°30'1 1.4
2018-Apr-15 14:59N 44°19' E 008°29'0 0.0
2018-Apr-15 14:29N 44°19' E 008°29'0 0.0
2018-Apr-15 13:59N 44°19' E 008°29'0 0.0
2018-Apr-15 13:29N 44°19' E 008°29'0 0.0
2018-Apr-15 12:59N 44°19' E 008°29'0 0.0
2018-Apr-15 12:29N 44°19' E 008°29'0 0.0
2018-Apr-15 11:59N 44°19' E 008°29'0 0.0
2018-Apr-15 11:29N 44°19' E 008°29'0 0.0
2018-Apr-15 10:59N 44°19' E 008°29'0 0.0
2018-Apr-15 10:29N 44°19' E 008°29'0 0.0
2018-Apr-15 09:59N 44°19' E 008°29'0 0.0
2018-Apr-15 09:29N 44°19' E 008°29'0 0.0
2018-Apr-15 08:56N 44°19' E 008°29'0 0.0
2018-Apr-15 08:29N 44°19' E 008°29'0 0.0
2018-Apr-15 07:59N 44°19' E 008°29'0 0.0
2018-Apr-15 07:29N 44°19' E 008°29'0 0.0
2018-Apr-15 06:59N 44°19' E 008°29'0 0.0
2018-Apr-15 06:29N 44°19' E 008°29'0 0.0
2018-Apr-15 05:59N 44°19' E 008°29'0 0.0
2018-Apr-15 05:29N 44°19' E 008°29'0 0.5
2018-Apr-15 05:01N 44°19' E 008°29'2 4.7
2018-Apr-15 04:30N 44°18' E 008°32'714.1
2018-Apr-15 04:00N 44°11' E 008°29'917.2
2018-Apr-15 03:31N 44°04' E 008°23'917.3
2018-Apr-15 02:59N 43°56' E 008°17'816.5
2018-Apr-15 02:30N 43°50' E 008°10'  
Track history (hours):
 
Tides and Currents Weather Stations Pressure Air Temp Water Temp Dewpoint Dewpoint Depression Visibility Wind Speed Wind Dir Waves Ship Positions

Costa Fascinosa

Last reported at 2018-Apr-25 02:30 UTC. Time now 2018-Apr-25 02:38 UTC.
Position N 36°13' E 015°01'.

Length 291 m; draft 8.3 m.

Type: Passenger vessel. MMSI: 247313500.

Date/timePositionNaut miles runAvg speedWind from/ knotsBaromVisibWave heightAir tempDewpointWater temp
2018-Apr-25 02:30N 36°13' E 015°01'612.4
2018-Apr-25 02:00N 36°17' E 015°07'612.1
2018-Apr-25 01:30N 36°20' E 015°13'612.1
2018-Apr-25 01:00N 36°24' E 015°19'611.8
2018-Apr-25 00:29N 36°28' E 015°25'1512.4
2018-Apr-24 23:18N 36°42' E 015°32'413.1
2018-Apr-24 23:00N 36°45' E 015°34'1013.3
2018-Apr-24 22:14N 36°55' E 015°40'312.9
2018-Apr-24 21:59N 36°58' E 015°41'1812.3
2018-Apr-24 20:31N 37°15' E 015°36'012.7
2018-Apr-24 20:30N 37°15' E 015°35'712.6
2018-Apr-24 19:54N 37°19' E 015°27'26 2.2
2018-Apr-24 08:00N 37°44' E 015°21'2217.8
2018-Apr-24 06:46N 38°04' E 015°32'618.6
2018-Apr-24 06:28N 38°09' E 015°35'916.7
2018-Apr-24 05:54N 38°17' E 015°41'611.8
2018-Apr-24 05:24N 38°23' E 015°39'715.8
2018-Apr-24 04:58N 38°29' E 015°35'917.4
2018-Apr-24 04:29N 38°36' E 015°30'917.5
2018-Apr-24 04:00N 38°44' E 015°25'1317.6
2018-Apr-24 03:15N 38°56' E 015°17'7016.3
2018-Apr-23 22:56N 39°57' E 014°33'613.4
2018-Apr-23 22:30N 40°02' E 014°29'813.6
2018-Apr-23 21:57N 40°09' E 014°25'613.7
2018-Apr-23 21:30N 40°14' E 014°21'713.5
2018-Apr-23 21:00N 40°20' E 014°17'713.3
2018-Apr-23 20:30N 40°26' E 014°12'612.9
2018-Apr-23 20:00N 40°32' E 014°09'612.8
2018-Apr-23 19:30N 40°38' E 014°11'612.9
2018-Apr-23 19:00N 40°44' E 014°15'612.1
2018-Apr-23 18:30N 40°50' E 014°17'1 2.2
2018-Apr-23 17:59N 40°50' E 014°16'0 0.0
2018-Apr-23 17:29N 40°50' E 014°16'0 0.0
2018-Apr-23 16:59N 40°50' E 014°16'0 0.0
2018-Apr-23 16:29N 40°50' E 014°16'0 0.0
2018-Apr-23 15:59N 40°50' E 014°16'0 0.0
2018-Apr-23 15:26N 40°50' E 014°16'0 0.0
2018-Apr-23 14:59N 40°50' E 014°16'0 0.0
2018-Apr-23 14:29N 40°50' E 014°16'0 0.0
2018-Apr-23 13:59N 40°50' E 014°16'0 0.0
2018-Apr-23 13:29N 40°50' E 014°16'0 0.0
2018-Apr-23 12:59N 40°50' E 014°16'0 0.0
2018-Apr-23 12:20N 40°50' E 014°16'0 0.0
2018-Apr-23 11:50N 40°50' E 014°16'0 0.0
2018-Apr-23 11:20N 40°50' E 014°16'0 0.7
2018-Apr-23 10:53N 40°50' E 014°16'2 4.6
2018-Apr-23 10:30N 40°49' E 014°17'510.8
2018-Apr-23 10:00N 40°43' E 014°17'1019.4
2018-Apr-23 09:30N 40°39' E 014°05'1020.1
2018-Apr-23 09:00N 40°37' E 013°52'1019.6
2018-Apr-23 08:30N 40°40' E 013°40'1620.1
2018-Apr-23 07:43N 40°44' E 013°19'3619.7
2018-Apr-23 05:54N 40°58' E 012°36'1520.1
2018-Apr-23 05:08N 41°06' E 012°19'320.0
2018-Apr-23 04:59N 41°08' E 012°15'2120.1
2018-Apr-23 03:55N 41°20' E 011°51'820.4
2018-Apr-23 03:30N 41°24' E 011°42'1020.1
2018-Apr-23 03:00N 41°30' E 011°31'1019.0
2018-Apr-23 02:30N 41°35' E 011°20'919.2
2018-Apr-23 02:00N 41°39' E 011°08'918.8
2018-Apr-23 01:30N 41°44' E 010°58'1319.1
2018-Apr-23 00:48N 41°53' E 010°44'619.0
2018-Apr-23 00:30N 41°56' E 010°38'918.7
2018-Apr-23 00:00N 42°01' E 010°28'1118.8
2018-Apr-22 23:25N 42°07' E 010°15'819.2
2018-Apr-22 23:00N 42°12' E 010°06'1019.1
2018-Apr-22 22:30N 42°17' E 009°56'1119.1
2018-Apr-22 21:56N 42°27' E 009°50'818.9
2018-Apr-22 21:30N 42°35' E 009°46'918.8
2018-Apr-22 21:00N 42°43' E 009°42'919.0
2018-Apr-22 20:30N 42°52' E 009°38'1019.0
2018-Apr-22 20:00N 43°02' E 009°35'1019.3
2018-Apr-22 19:30N 43°10' E 009°29'1019.2
2018-Apr-22 19:00N 43°18' E 009°22'918.8
2018-Apr-22 18:30N 43°26' E 009°15'918.8
2018-Apr-22 18:00N 43°34' E 009°09'1019.2
2018-Apr-22 17:30N 43°43' E 009°02'1019.5
2018-Apr-22 17:00N 43°51' E 008°55'1019.1
2018-Apr-22 16:30N 43°59' E 008°48'1019.0
2018-Apr-22 16:00N 44°07' E 008°41'918.7
2018-Apr-22 15:30N 44°15' E 008°34'5 9.1
2018-Apr-22 15:00N 44°19' E 008°30'1 1.3
2018-Apr-22 14:28N 44°19' E 008°30'0 0.0
2018-Apr-22 13:58N 44°19' E 008°30'0 0.0
2018-Apr-22 13:28N 44°19' E 008°30'0 0.0
2018-Apr-22 13:00N 44°19' E 008°30'0 0.0
2018-Apr-22 12:30N 44°19' E 008°30'0 0.0
2018-Apr-22 12:00N 44°19' E 008°30'0 0.0
2018-Apr-22 11:30N 44°19' E 008°30'0 0.0
2018-Apr-22 10:59N 44°19' E 008°30'0 0.0
2018-Apr-22 10:29N 44°19' E 008°30'0 0.0
2018-Apr-22 09:59N 44°19' E 008°30'0 0.0
2018-Apr-22 09:29N 44°19' E 008°30'0 0.0
2018-Apr-22 08:59N 44°19' E 008°30'0 0.0
2018-Apr-22 08:28N 44°19' E 008°30'0 0.0
2018-Apr-22 07:58N 44°19' E 008°30'0 0.0
2018-Apr-22 07:28N 44°19' E 008°30'0 0.0
2018-Apr-22 07:00N 44°19' E 008°30'0 0.0
2018-Apr-22 06:30N 44°19' E 008°30'1 1.4
2018-Apr-22 06:00N 44°19' E 008°30'4 9.0
2018-Apr-22 05:31N 44°15' E 008°31'917.0
2018-Apr-22 05:01N 44°07' E 008°26'917.3
2018-Apr-22 04:31N 43°60' E 008°20'917.5
2018-Apr-22 04:01N 43°52' E 008°13'917.3
2018-Apr-22 03:31N 43°46' E 008°04'917.2
2018-Apr-22 03:00N 43°41' E 007°55'817.0
2018-Apr-22 02:30N 43°35' E 007°46'816.9
2018-Apr-22 02:01N 43°31' E 007°37'816.8
2018-Apr-22 01:31N 43°26' E 007°27'917.2
2018-Apr-22 01:01N 43°21' E 007°18'917.7
2018-Apr-22 00:30N 43°16' E 007°08'4312.8
2018-Apr-21 21:07N 42°54' E 006°16'313.1
2018-Apr-21 20:54N 42°54' E 006°13'2812.7
2018-Apr-21 18:41N 42°60' E 005°35'212.8
2018-Apr-21 18:30N 43°01' E 005°32'612.9
2018-Apr-21 18:00N 43°03' E 005°24'613.0
2018-Apr-21 17:30N 43°04' E 005°15'612.7
2018-Apr-21 17:00N 43°07' E 005°07'612.7
2018-Apr-21 16:30N 43°13' E 005°09'612.8
2018-Apr-21 16:00N 43°18' E 005°14'5 9.7
2018-Apr-21 15:30N 43°21' E 005°19'0 0.1
2018-Apr-21 06:50N 43°21' E 005°20'1 2.2
2018-Apr-21 06:30N 43°21' E 005°19'4 7.5
2018-Apr-21 05:59N 43°19' E 005°14'816.9
2018-Apr-21 05:31N 43°12' E 005°09'816.7
2018-Apr-21 05:00N 43°05' E 005°02'713.5
2018-Apr-21 04:30N 43°00' E 004°55'713.2
2018-Apr-21 04:00N 42°56' E 004°49'713.5
2018-Apr-21 03:30N 42°51' E 004°43'11812.9
2018-Apr-20 18:22N 41°30' E 002°46'513.2
2018-Apr-20 18:00N 41°28' E 002°41'612.9
2018-Apr-20 17:30N 41°24' E 002°34'612.8
2018-Apr-20 17:00N 41°20' E 002°27'612.8
2018-Apr-20 16:30N 41°17' E 002°19'611.8
2018-Apr-20 16:00N 41°15' E 002°12'5 9.9
2018-Apr-20 15:30N 41°20' E 002°10'1 1.8
2018-Apr-20 14:58N 41°21' E 002°10'0 0.0
2018-Apr-20 14:28N 41°21' E 002°10'0 0.0
2018-Apr-20 13:58N 41°21' E 002°10'0 0.0
2018-Apr-20 13:28N 41°21' E 002°10'0 0.0
2018-Apr-20 12:58N 41°21' E 002°10'0 0.0
2018-Apr-20 12:29N 41°21' E 002°10'0 0.0
2018-Apr-20 12:00N 41°21' E 002°10'0 0.0
2018-Apr-20 11:29N 41°21' E 002°10'0 0.0
2018-Apr-20 10:58N 41°21' E 002°10'0 0.0
2018-Apr-20 10:25N 41°21' E 002°10'0 0.0
2018-Apr-20 09:58N 41°21' E 002°10'0 0.0
2018-Apr-20 09:28N 41°21' E 002°10'0 0.0
2018-Apr-20 08:58N 41°21' E 002°10'0 0.0
2018-Apr-20 08:25N 41°21' E 002°10'0 0.0
2018-Apr-20 07:58N 41°21' E 002°10'0 0.0
2018-Apr-20 07:28N 41°21' E 002°10'0 0.8
2018-Apr-20 07:00N 41°21' E 002°10'2 3.6
2018-Apr-20 06:30N 41°19' E 002°10'5 9.5
2018-Apr-20 06:00N 41°15' E 002°14'816.5
2018-Apr-20 05:30N 41°11' E 002°24'917.3
2018-Apr-20 05:00N 41°07' E 002°34'816.8
2018-Apr-20 04:30N 41°03' E 002°43'2616.7
2018-Apr-20 02:58N 40°49' E 003°12'28217.5
2018-Apr-19 10:50N 38°24' E 008°27'26616.4
2018-Apr-18 18:35N 36°31' E 013°30'1 9.4
2018-Apr-18 18:30N 36°30' E 013°31'612.7
2018-Apr-18 18:00N 36°28' E 013°38'713.3
2018-Apr-18 17:30N 36°25' E 013°46'714.7
2018-Apr-18 17:00N 36°21' E 013°54'612.5
2018-Apr-18 16:30N 36°18' E 014°01'713.8
2018-Apr-18 16:00N 36°15' E 014°08'814.3
2018-Apr-18 15:28N 36°12' E 014°17'613.3
2018-Apr-18 15:00N 36°09' E 014°24'713.5
2018-Apr-18 14:30N 36°07' E 014°31'815.7
2018-Apr-18 14:00N 36°02' E 014°39'611.4
2018-Apr-18 13:30N 35°57' E 014°34'4 0.5
2018-Apr-18 05:23N 35°54' E 014°32'2 4.4
2018-Apr-18 04:59N 35°55' E 014°34'815.4
2018-Apr-18 04:28N 35°60' E 014°41'8711.9
2018-Apr-17 21:08N 37°15' E 015°36'413.0
2018-Apr-17 20:49N 37°17' E 015°32'413.1
2018-Apr-17 20:29N 37°19' E 015°27'43 3.2
2018-Apr-17 07:07N 38°02' E 015°31'217.8
2018-Apr-17 06:59N 38°04' E 015°32'917.2
2018-Apr-17 06:29N 38°12' E 015°36'813.4
2018-Apr-17 05:54N 38°18' E 015°41'817.7
2018-Apr-17 05:29N 38°25' E 015°37'917.5
2018-Apr-17 04:59N 38°33' E 015°32'916.9
2018-Apr-17 04:29N 38°41' E 015°27'8916.0
2018-Apr-16 22:54N 39°59' E 014°32'512.8
2018-Apr-16 22:30N 40°03' E 014°29'612.7
2018-Apr-16 22:00N 40°09' E 014°25'712.8
2018-Apr-16 21:29N 40°15' E 014°21'612.7
2018-Apr-16 21:00N 40°20' E 014°17'1412.6
2018-Apr-16 19:55N 40°32' E 014°08'512.3
2018-Apr-16 19:30N 40°37' E 014°10'612.6
2018-Apr-16 19:00N 40°43' E 014°14'612.2
2018-Apr-16 18:30N 40°48' E 014°17'2 2.9
2018-Apr-16 17:50N 40°50' E 014°16'0 0.0
2018-Apr-16 17:02N 40°50' E 014°16'0 0.0
2018-Apr-16 16:50N 40°50' E 014°16'0 0.0
2018-Apr-16 16:08N 40°50' E 014°16'0 0.0
2018-Apr-16 15:50N 40°50' E 014°16'0 0.0
2018-Apr-16 15:16N 40°50' E 014°16'0 0.0
2018-Apr-16 14:58N 40°50' E 014°16'0 0.0
2018-Apr-16 14:28N 40°50' E 014°16'0 0.0
2018-Apr-16 13:57N 40°50' E 014°16'0 0.0
2018-Apr-16 12:57N 40°50' E 014°16'0 0.0
2018-Apr-16 12:27N 40°50' E 014°16'0 0.0
2018-Apr-16 12:00N 40°50' E 014°16'0 0.0
2018-Apr-16 11:27N 40°50' E 014°16'0 0.1
2018-Apr-16 11:00N 40°50' E 014°16'2 3.7
2018-Apr-16 10:31N 40°49' E 014°17'5 9.9
2018-Apr-16 10:00N 40°44' E 014°17'917.5
2018-Apr-16 09:30N 40°40' E 014°07'917.9
2018-Apr-16 09:00N 40°38' E 013°55'1019.1
2018-Apr-16 08:30N 40°40' E 013°43'1019.3
2018-Apr-16 07:59N 40°42' E 013°30'16319.9
2018-Apr-15 23:45N 42°04' E 010°22'3119.6
2018-Apr-15 22:11N 42°25' E 009°51'420.3
2018-Apr-15 21:59N 42°29' E 009°49'1720.4
2018-Apr-15 21:10N 42°44' E 009°41'420.2
2018-Apr-15 20:58N 42°48' E 009°39'920.2
2018-Apr-15 20:30N 42°57' E 009°37'1019.7
2018-Apr-15 20:00N 43°06' E 009°32'1020.0
2018-Apr-15 19:30N 43°15' E 009°25'1020.0
2018-Apr-15 19:00N 43°23' E 009°18'1020.0
2018-Apr-15 18:30N 43°32' E 009°10'1019.9
2018-Apr-15 18:00N 43°40' E 009°03'1019.9
2018-Apr-15 17:30N 43°48' E 008°55'1020.3
2018-Apr-15 17:00N 43°57' E 008°49'1020.8
2018-Apr-15 16:30N 44°07' E 008°42'1020.2
2018-Apr-15 16:00N 44°15' E 008°34'5 9.9
2018-Apr-15 15:30N 44°19' E 008°30'1 1.4
2018-Apr-15 14:59N 44°19' E 008°29'0 0.0
2018-Apr-15 14:29N 44°19' E 008°29'0 0.0
2018-Apr-15 13:59N 44°19' E 008°29'0 0.0
2018-Apr-15 13:29N 44°19' E 008°29'0 0.0
2018-Apr-15 12:59N 44°19' E 008°29'0 0.0
2018-Apr-15 12:29N 44°19' E 008°29'0 0.0
2018-Apr-15 11:59N 44°19' E 008°29'0 0.0
2018-Apr-15 11:29N 44°19' E 008°29'0 0.0
2018-Apr-15 10:59N 44°19' E 008°29'0 0.0
2018-Apr-15 10:29N 44°19' E 008°29'0 0.0
2018-Apr-15 09:59N 44°19' E 008°29'0 0.0
2018-Apr-15 09:29N 44°19' E 008°29'0 0.0
2018-Apr-15 08:56N 44°19' E 008°29'0 0.0
2018-Apr-15 08:29N 44°19' E 008°29'0 0.0
2018-Apr-15 07:59N 44°19' E 008°29'0 0.0
2018-Apr-15 07:29N 44°19' E 008°29'0 0.0
2018-Apr-15 06:59N 44°19' E 008°29'0 0.0
2018-Apr-15 06:29N 44°19' E 008°29'0 0.0
2018-Apr-15 05:59N 44°19' E 008°29'0 0.0
2018-Apr-15 05:29N 44°19' E 008°29'0 0.5
2018-Apr-15 05:01N 44°19' E 008°29'2 4.7
2018-Apr-15 04:30N 44°18' E 008°32'714.1
2018-Apr-15 04:00N 44°11' E 008°29'917.2
2018-Apr-15 03:31N 44°04' E 008°23'917.3
2018-Apr-15 02:59N 43°56' E 008°17'816.5
2018-Apr-15 02:30N 43°50' E 008°10'  

Dump ship's entire track history